createdAt,value
2023-05-13T00:01:41.768Z,19.40
2023-05-13T00:04:12.683Z,19.40
2023-05-13T00:06:43.703Z,19.30
2023-05-13T00:09:14.677Z,19.40
2023-05-13T00:11:45.598Z,19.50
2023-05-13T00:14:16.539Z,19.50
2023-05-13T00:16:47.611Z,19.70
2023-05-13T00:19:18.545Z,19.70
2023-05-13T00:21:49.562Z,19.70
2023-05-13T00:24:20.663Z,19.50
2023-05-13T00:26:51.605Z,19.40
2023-05-13T00:29:30.307Z,19.50
2023-05-13T00:32:01.527Z,19.50
2023-05-13T00:34:32.624Z,19.40
2023-05-13T00:37:03.553Z,19.40
2023-05-13T00:39:34.442Z,19.40
2023-05-13T00:42:06.001Z,19.50
2023-05-13T00:44:36.931Z,19.60
2023-05-13T00:47:09.352Z,19.60
2023-05-13T00:49:40.482Z,19.60
2023-05-13T00:52:12.559Z,19.60
2023-05-13T00:54:43.431Z,19.50
2023-05-13T00:57:14.311Z,19.50
2023-05-13T00:59:45.196Z,19.60
2023-05-13T01:02:39.271Z,19.50
2023-05-13T01:05:19.637Z,19.30
2023-05-13T01:08:09.995Z,19.40
2023-05-13T01:10:58.911Z,19.30
2023-05-13T01:13:43.104Z,19.30
2023-05-13T01:16:23.434Z,19.00
2023-05-13T01:19:02.839Z,19.30
2023-05-13T01:21:39.151Z,19.00
2023-05-13T01:24:10.195Z,18.90
2023-05-13T01:26:41.112Z,19.00
2023-05-13T01:29:12.089Z,18.90
2023-05-13T01:31:43.260Z,18.90
2023-05-13T01:34:16.127Z,18.90
2023-05-13T01:36:48.709Z,18.80
2023-05-13T01:39:20.995Z,18.80
2023-05-13T01:41:52.087Z,18.90
2023-05-13T01:44:23.107Z,18.70
2023-05-13T01:46:54.295Z,18.80
2023-05-13T01:49:26.010Z,18.80
2023-05-13T01:51:57.789Z,18.60
2023-05-13T01:54:28.730Z,18.50
2023-05-13T01:56:59.598Z,18.40
2023-05-13T01:59:30.688Z,18.40
2023-05-13T02:02:01.812Z,18.40
2023-05-13T02:04:32.819Z,18.50
2023-05-13T02:07:03.922Z,18.40
2023-05-13T02:09:34.888Z,18.30
2023-05-13T02:12:06.469Z,18.20
2023-05-13T02:14:38.755Z,18.40
2023-05-13T02:17:09.675Z,18.50
2023-05-13T02:19:40.654Z,18.50
2023-05-13T02:22:11.726Z,18.80
2023-05-13T02:24:42.676Z,18.50
2023-05-13T02:27:16.377Z,18.60
2023-05-13T02:29:47.265Z,18.30
2023-05-13T02:32:18.210Z,18.60
2023-05-13T02:34:49.197Z,18.40
2023-05-13T02:37:20.073Z,18.40
2023-05-13T02:39:51.020Z,18.40
2023-05-13T02:42:22.102Z,18.50
2023-05-13T02:44:53.124Z,18.50
2023-05-13T02:47:24.070Z,18.60
2023-05-13T02:49:57.141Z,18.50
2023-05-13T02:52:28.035Z,18.50
2023-05-13T02:54:58.945Z,18.30
2023-05-13T02:57:29.937Z,18.60
2023-05-13T03:00:00.835Z,18.60
2023-05-13T03:02:34.286Z,18.40
2023-05-13T03:05:05.988Z,18.60
2023-05-13T03:07:37.029Z,18.40
2023-05-13T03:10:08.756Z,18.60
2023-05-13T03:12:39.862Z,18.60
2023-05-13T03:15:11.340Z,18.90
2023-05-13T03:17:42.292Z,18.80
2023-05-13T03:20:13.405Z,18.80
2023-05-13T03:22:44.795Z,19.20
2023-05-13T03:25:15.834Z,19.30
2023-05-13T03:27:46.715Z,19.00
2023-05-13T03:30:17.803Z,18.90
2023-05-13T03:32:49.141Z,19.00
2023-05-13T03:35:20.128Z,18.70
2023-05-13T03:37:51.120Z,18.60
2023-05-13T03:40:22.287Z,18.70
2023-05-13T03:42:53.399Z,18.60
2023-05-13T03:45:24.283Z,18.50
2023-05-13T03:47:55.244Z,18.60
2023-05-13T03:50:26.358Z,18.50
2023-05-13T03:52:57.270Z,18.60
2023-05-13T03:55:28.147Z,18.60
2023-05-13T03:57:59.410Z,18.60
2023-05-13T04:00:30.411Z,18.50
2023-05-13T04:03:01.337Z,18.40
2023-05-13T04:05:32.768Z,18.40
2023-05-13T04:08:03.744Z,18.40
2023-05-13T04:10:34.696Z,18.30
2023-05-13T04:13:05.754Z,18.60
2023-05-13T04:15:36.728Z,18.30
2023-05-13T04:18:07.742Z,18.10
2023-05-13T04:20:42.291Z,18.70
2023-05-13T04:23:13.238Z,18.60
2023-05-13T04:25:50.896Z,18.30
2023-05-13T04:28:21.839Z,18.50
2023-05-13T04:30:53.274Z,18.70
2023-05-13T04:33:24.188Z,18.50
2023-05-13T04:35:55.174Z,18.30
2023-05-13T04:38:26.087Z,18.30
2023-05-13T04:40:56.980Z,18.40
2023-05-13T04:43:27.960Z,18.50
2023-05-13T04:45:58.887Z,18.30
2023-05-13T04:48:30.073Z,18.70
2023-05-13T04:51:02.063Z,18.50
2023-05-13T04:53:33.863Z,18.50
2023-05-13T04:56:05.197Z,18.40
2023-05-13T04:58:36.162Z,18.50
2023-05-13T05:01:07.301Z,18.40
2023-05-13T05:03:38.324Z,18.40
2023-05-13T05:06:09.207Z,18.40
2023-05-13T05:08:40.144Z,18.50
2023-05-13T05:11:11.279Z,18.50
2023-05-13T05:13:42.230Z,18.50
2023-05-13T05:16:13.162Z,18.40
2023-05-13T05:18:44.189Z,18.60
2023-05-13T05:21:15.194Z,18.50
2023-05-13T05:23:46.095Z,18.80
2023-05-13T05:26:16.992Z,18.70
2023-05-13T05:28:47.924Z,18.70
2023-05-13T05:31:19.077Z,18.80
2023-05-13T05:33:51.150Z,18.80
2023-05-13T05:36:22.224Z,18.70
2023-05-13T05:38:53.099Z,18.90
2023-05-13T05:41:24.009Z,18.90
2023-05-13T05:43:54.894Z,19.00
2023-05-13T05:46:25.867Z,18.90
2023-05-13T05:48:56.784Z,18.60
2023-05-13T05:51:27.720Z,18.40
2023-05-13T05:53:58.636Z,18.70
2023-05-13T05:56:29.666Z,18.90
2023-05-13T05:59:00.737Z,19.00
2023-05-13T06:01:37.377Z,18.90
2023-05-13T06:04:08.446Z,18.80
2023-05-13T06:06:40.481Z,18.80
2023-05-13T06:09:11.452Z,19.00
2023-05-13T06:11:42.337Z,19.90
2023-05-13T06:14:13.267Z,19.70
2023-05-13T06:16:44.130Z,19.60
2023-05-13T06:19:15.110Z,19.40
2023-05-13T06:21:46.273Z,19.30
2023-05-13T06:24:17.256Z,19.20
2023-05-13T06:26:48.225Z,19.00
2023-05-13T06:29:19.129Z,19.10
2023-05-13T06:34:21.409Z,19.10
2023-05-13T06:36:53.369Z,19.40
2023-05-13T06:39:24.262Z,19.60
2023-05-13T06:41:55.438Z,19.40
2023-05-13T06:44:26.357Z,19.30
2023-05-13T06:46:57.368Z,19.40
2023-05-13T06:49:28.438Z,19.20
2023-05-13T06:51:59.357Z,19.10
2023-05-13T06:54:30.437Z,19.20
2023-05-13T06:57:01.659Z,19.40
2023-05-13T06:59:32.646Z,19.40
2023-05-13T07:02:03.737Z,19.70
2023-05-13T07:04:34.683Z,19.70
2023-05-13T07:07:05.552Z,19.60
2023-05-13T07:09:36.456Z,19.70
2023-05-13T07:12:07.529Z,19.80
2023-05-13T07:14:38.672Z,19.80
2023-05-13T07:17:10.201Z,19.70
2023-05-13T07:19:41.363Z,19.80
2023-05-13T07:22:12.309Z,19.80
2023-05-13T07:24:43.174Z,19.80
2023-05-13T07:27:14.099Z,19.70
2023-05-13T07:29:45.036Z,19.90
2023-05-13T07:32:15.957Z,20.00
2023-05-13T07:34:47.033Z,20.00
2023-05-13T07:37:17.919Z,20.00
2023-05-13T07:39:48.876Z,20.10
2023-05-13T07:42:20.138Z,19.80
2023-05-13T07:44:51.017Z,19.80
2023-05-13T07:47:22.497Z,19.90
2023-05-13T07:49:53.674Z,20.10
2023-05-13T07:52:24.672Z,20.30
2023-05-13T07:54:55.716Z,20.30
2023-05-13T07:57:26.635Z,19.70
2023-05-13T07:59:57.646Z,20.00
2023-05-13T08:02:34.741Z,20.10
2023-05-13T08:05:07.029Z,20.10
2023-05-13T08:07:38.403Z,20.10
2023-05-13T08:10:09.600Z,20.40
2023-05-13T08:12:40.600Z,20.40
2023-05-13T08:15:14.363Z,20.00
2023-05-13T08:17:45.313Z,20.20
2023-05-13T08:20:16.314Z,20.30
2023-05-13T08:22:47.874Z,19.90
2023-05-13T08:25:19.453Z,20.20
2023-05-13T08:27:50.703Z,20.00
2023-05-13T08:30:21.851Z,20.20
2023-05-13T08:32:52.947Z,20.10
2023-05-13T08:35:24.104Z,20.10
2023-05-13T08:37:55.135Z,20.10
2023-05-13T08:40:26.351Z,20.20
2023-05-13T08:43:01.583Z,20.20
2023-05-13T08:45:34.286Z,20.20
2023-05-13T08:48:06.867Z,20.20
2023-05-13T08:50:38.738Z,20.10
2023-05-13T08:53:11.942Z,20.30
2023-05-13T08:55:42.853Z,20.10
2023-05-13T08:58:13.736Z,20.30
2023-05-13T09:00:44.821Z,20.10
2023-05-13T09:03:15.829Z,20.20
2023-05-13T09:05:47.806Z,20.10
2023-05-13T09:08:18.759Z,20.20
2023-05-13T09:10:50.197Z,20.50
2023-05-13T09:13:22.300Z,20.50
2023-05-13T09:15:53.998Z,20.50
2023-05-13T09:18:33.950Z,20.50
2023-05-13T09:21:29.354Z,20.40
2023-05-13T09:24:21.767Z,20.60
2023-05-13T09:26:52.692Z,20.80
2023-05-13T09:29:25.711Z,21.10
2023-05-13T09:32:01.574Z,21.00
2023-05-13T09:34:34.949Z,21.20
2023-05-13T09:37:08.254Z,21.30
2023-05-13T09:39:41.758Z,21.30
2023-05-13T09:42:17.492Z,21.30
2023-05-13T09:44:49.822Z,21.20
2023-05-13T09:47:20.866Z,21.40
2023-05-13T09:49:57.983Z,21.20
2023-05-13T09:52:31.943Z,21.20
2023-05-13T09:55:05.184Z,21.60
2023-05-13T09:57:36.357Z,21.60
2023-05-13T10:00:28.876Z,21.60
2023-05-13T10:03:03.397Z,21.60
2023-05-13T10:05:34.973Z,21.70
2023-05-13T10:08:09.817Z,21.80
2023-05-13T10:10:42.295Z,21.60
2023-05-13T10:13:16.633Z,21.80
2023-05-13T10:15:54.070Z,21.80
2023-05-13T10:18:25.104Z,21.70
2023-05-13T10:20:57.067Z,21.80
2023-05-13T10:23:28.677Z,21.70
2023-05-13T10:26:00.178Z,21.50
2023-05-13T10:28:32.013Z,21.70
2023-05-13T10:31:02.952Z,21.50
2023-05-13T10:33:36.866Z,21.50
2023-05-13T10:36:22.669Z,21.60
2023-05-13T10:39:21.238Z,21.90
2023-05-13T10:42:45.478Z,21.80
2023-05-13T10:45:17.503Z,21.70
2023-05-13T10:47:51.709Z,21.50
2023-05-13T10:50:26.706Z,21.70
2023-05-13T10:52:58.956Z,21.50
2023-05-13T10:55:30.036Z,21.90
2023-05-13T10:58:12.180Z,21.80
2023-05-13T11:00:45.571Z,21.90
2023-05-13T11:03:31.917Z,21.60
2023-05-13T11:06:19.812Z,21.70
2023-05-13T11:08:55.891Z,22.00
2023-05-13T11:11:36.783Z,21.80
2023-05-13T11:14:20.860Z,21.90
2023-05-13T11:17:00.478Z,22.30
2023-05-13T11:19:50.860Z,22.00
2023-05-13T11:22:25.894Z,22.20
2023-05-13T11:25:10.604Z,22.50
2023-05-13T11:27:42.976Z,22.20
2023-05-13T11:30:27.306Z,21.80
2023-05-13T11:33:00.001Z,21.80
2023-05-13T11:35:32.987Z,21.80
2023-05-13T11:38:04.441Z,22.10
2023-05-13T11:40:37.703Z,21.70
2023-05-13T11:43:10.694Z,21.50
2023-05-13T11:45:42.359Z,22.10
2023-05-13T11:48:24.241Z,22.20
2023-05-13T11:50:57.440Z,22.40
2023-05-13T11:53:28.444Z,22.50
2023-05-13T11:56:10.940Z,22.40
2023-05-13T11:58:41.856Z,22.50
2023-05-13T12:01:19.844Z,22.50
2023-05-13T12:03:50.895Z,22.40
2023-05-13T12:06:21.828Z,22.40
2023-05-13T12:08:52.954Z,22.30
2023-05-13T12:11:24.399Z,22.50
2023-05-13T12:14:06.486Z,22.50
2023-05-13T12:16:37.681Z,22.10
2023-05-13T12:19:09.008Z,22.30
2023-05-13T12:21:40.479Z,22.10
2023-05-13T12:24:23.603Z,22.30
2023-05-13T12:27:06.836Z,22.40
2023-05-13T12:29:45.197Z,22.30
2023-05-13T12:32:17.102Z,22.40
2023-05-13T12:34:51.855Z,22.20
2023-05-13T12:37:26.201Z,22.30
2023-05-13T12:40:13.608Z,22.50
2023-05-13T12:42:45.638Z,22.80
2023-05-13T12:45:22.803Z,23.10
2023-05-13T12:47:55.822Z,22.80
2023-05-13T12:50:27.417Z,22.30
2023-05-13T12:53:01.421Z,23.20
2023-05-13T12:55:32.847Z,23.50
2023-05-13T12:58:06.233Z,23.30
2023-05-13T13:00:37.519Z,23.70
2023-05-13T13:03:08.872Z,23.80
2023-05-13T13:05:39.869Z,24.00
2023-05-13T13:08:10.806Z,24.20
2023-05-13T13:10:41.723Z,24.20
2023-05-13T13:13:13.042Z,23.70
2023-05-13T13:15:43.984Z,23.90
2023-05-13T13:18:14.932Z,24.00
2023-05-13T13:20:45.891Z,23.90
2023-05-13T13:23:17.103Z,24.00
2023-05-13T13:25:51.651Z,23.70
2023-05-13T13:28:22.549Z,24.00
2023-05-13T13:30:54.019Z,24.00
2023-05-13T13:33:24.937Z,23.90
2023-05-13T13:35:56.032Z,24.00
2023-05-13T13:38:26.926Z,24.30
2023-05-13T13:40:57.849Z,24.40
2023-05-13T13:43:31.418Z,24.30
2023-05-13T13:46:04.883Z,24.40
2023-05-13T13:48:35.805Z,24.30
2023-05-13T13:51:06.829Z,24.60
2023-05-13T13:53:37.745Z,24.30
2023-05-13T13:56:08.723Z,24.40
2023-05-13T13:58:40.624Z,24.00
2023-05-13T14:01:11.647Z,23.90
2023-05-13T14:03:42.731Z,24.10
2023-05-13T14:06:13.841Z,24.70
2023-05-13T14:08:44.893Z,24.20
2023-05-13T14:11:16.697Z,24.00
2023-05-13T14:13:47.622Z,24.10
2023-05-13T14:16:18.665Z,23.90
2023-05-13T14:18:49.726Z,23.80
2023-05-13T14:21:20.658Z,23.70
2023-05-13T14:23:51.613Z,23.40
2023-05-13T14:26:22.576Z,23.60
2023-05-13T14:28:54.537Z,23.70
2023-05-13T14:31:25.571Z,23.80
2023-05-13T14:33:56.518Z,24.20
2023-05-13T14:36:27.637Z,24.10
2023-05-13T14:38:58.716Z,24.50
2023-05-13T14:41:29.958Z,23.90
2023-05-13T14:44:01.561Z,24.20
2023-05-13T14:46:35.492Z,24.10
2023-05-13T14:49:09.266Z,23.70
2023-05-13T14:51:41.053Z,24.10
2023-05-13T14:54:11.973Z,24.60
2023-05-13T14:56:43.048Z,24.20
2023-05-13T14:59:14.020Z,24.30
2023-05-13T15:01:46.037Z,24.40
2023-05-13T15:04:17.023Z,24.10
2023-05-13T15:06:48.001Z,24.00
2023-05-13T15:09:21.855Z,24.30
2023-05-13T15:11:52.763Z,24.30
2023-05-13T15:14:27.337Z,24.20
2023-05-13T15:17:00.320Z,23.90
2023-05-13T15:19:32.411Z,23.40
2023-05-13T15:22:05.202Z,23.90
2023-05-13T15:24:37.425Z,24.30
2023-05-13T15:27:10.855Z,24.00
2023-05-13T15:29:42.129Z,23.70
2023-05-13T15:32:13.131Z,24.30
2023-05-13T15:34:44.125Z,24.50
2023-05-13T15:37:15.104Z,24.20
2023-05-13T15:39:46.014Z,23.90
2023-05-13T15:42:16.982Z,24.10
2023-05-13T15:44:47.983Z,24.10
2023-05-13T15:47:19.443Z,23.80
2023-05-13T15:49:51.304Z,24.20
2023-05-13T15:52:22.245Z,23.90
2023-05-13T15:54:53.144Z,24.00
2023-05-13T15:57:24.113Z,24.30
2023-05-13T15:59:55.034Z,24.20
2023-05-13T16:02:25.961Z,23.90
2023-05-13T16:04:56.896Z,24.10
2023-05-13T16:07:28.044Z,24.20
2023-05-13T16:10:02.176Z,23.80
2023-05-13T16:12:33.208Z,24.10
2023-05-13T16:15:05.182Z,23.90
2023-05-13T16:17:36.191Z,23.90
2023-05-13T16:20:10.186Z,23.80
2023-05-13T16:22:43.509Z,23.80
2023-05-13T16:25:14.669Z,23.70
2023-05-13T16:27:45.680Z,23.60
2023-05-13T16:30:16.689Z,23.60
2023-05-13T16:32:53.005Z,23.20
2023-05-13T16:35:24.065Z,23.10
2023-05-13T16:37:55.196Z,23.10
2023-05-13T16:40:26.146Z,23.20
2023-05-13T16:42:59.848Z,23.10
2023-05-13T16:45:32.878Z,23.20
2023-05-13T16:48:09.248Z,23.20
2023-05-13T16:50:41.320Z,23.30
2023-05-13T16:53:12.707Z,23.20
2023-05-13T16:55:44.020Z,23.00
2023-05-13T16:58:15.439Z,23.10
2023-05-13T17:00:46.562Z,23.20
2023-05-13T17:03:17.676Z,23.40
2023-05-13T17:05:49.089Z,23.20
2023-05-13T17:08:21.376Z,23.20
2023-05-13T17:10:52.310Z,23.20
2023-05-13T17:13:23.922Z,23.30
2023-05-13T17:15:54.884Z,23.20
2023-05-13T17:18:26.509Z,23.10
2023-05-13T17:20:57.597Z,23.00
2023-05-13T17:23:28.508Z,23.10
2023-05-13T17:25:59.421Z,23.10
2023-05-13T17:28:30.423Z,23.10
2023-05-13T17:31:01.707Z,23.00
2023-05-13T17:33:33.223Z,23.00
2023-05-13T17:36:04.816Z,23.00
2023-05-13T17:38:35.997Z,22.90
2023-05-13T17:41:06.921Z,22.90
2023-05-13T17:43:39.711Z,22.90
2023-05-13T17:46:11.326Z,23.00
2023-05-13T17:48:42.946Z,22.90
2023-05-13T17:51:14.182Z,22.90
2023-05-13T17:53:45.421Z,22.90
2023-05-13T17:56:16.311Z,22.80
2023-05-13T17:58:47.186Z,23.10
2023-05-13T18:01:19.897Z,22.90
2023-05-13T18:03:50.812Z,22.80
2023-05-13T18:06:21.926Z,22.80
2023-05-13T18:08:52.905Z,23.00
2023-05-13T18:11:23.810Z,23.00
2023-05-13T18:13:58.251Z,23.20
2023-05-13T18:16:29.276Z,22.90
2023-05-13T18:19:00.322Z,22.90
2023-05-13T18:21:31.749Z,22.90
2023-05-13T18:24:02.755Z,22.70
2023-05-13T18:26:33.997Z,22.70
2023-05-13T18:29:04.942Z,22.60
2023-05-13T18:31:35.915Z,22.60
2023-05-13T18:34:06.871Z,22.60
2023-05-13T18:36:37.767Z,22.60
2023-05-13T18:39:13.058Z,22.60
2023-05-13T18:41:44.177Z,22.50
2023-05-13T18:44:15.537Z,22.50
2023-05-13T18:46:46.612Z,22.40
2023-05-13T18:49:17.620Z,22.40
2023-05-13T18:51:48.558Z,22.30
2023-05-13T18:54:21.286Z,23.00
2023-05-13T18:56:52.374Z,22.50
2023-05-13T18:59:23.395Z,22.20
2023-05-13T19:01:54.624Z,22.00
2023-05-13T19:04:26.076Z,21.80
2023-05-13T19:06:57.162Z,21.80
2023-05-13T19:09:28.063Z,21.80
2023-05-13T19:11:58.976Z,21.70
2023-05-13T19:14:29.960Z,21.60
2023-05-13T19:17:01.698Z,21.50
2023-05-13T19:19:32.652Z,21.50
2023-05-13T19:22:03.789Z,21.50
2023-05-13T19:24:37.595Z,21.50
2023-05-13T19:27:09.423Z,21.60
2023-05-13T19:29:40.379Z,21.50
2023-05-13T19:32:11.283Z,21.30
2023-05-13T19:34:42.234Z,21.20
2023-05-13T19:37:13.170Z,21.20
2023-05-13T19:39:45.038Z,22.20
2023-05-13T19:42:16.072Z,22.70
2023-05-13T19:44:47.350Z,22.60
2023-05-13T19:47:18.400Z,21.80
2023-05-13T19:49:49.456Z,21.30
2023-05-13T19:52:20.891Z,21.10
2023-05-13T19:54:51.812Z,21.10
2023-05-13T19:57:22.836Z,20.90
2023-05-13T20:00:00.428Z,20.60
2023-05-13T20:02:31.712Z,20.30
2023-05-13T20:05:03.040Z,20.30
2023-05-13T20:07:34.421Z,20.30
2023-05-13T20:10:06.693Z,20.10
2023-05-13T20:12:39.747Z,20.20
2023-05-13T20:15:11.036Z,20.00
2023-05-13T20:17:42.078Z,19.90
2023-05-13T20:20:13.708Z,19.80
2023-05-13T20:22:47.585Z,19.70
2023-05-13T20:25:18.591Z,19.80
2023-05-13T20:27:52.628Z,19.90
2023-05-13T20:30:24.288Z,19.70
2023-05-13T20:32:58.451Z,19.60
2023-05-13T20:35:29.439Z,19.70
2023-05-13T20:38:01.215Z,20.00
2023-05-13T20:40:32.245Z,20.50
2023-05-13T20:43:04.646Z,20.30
2023-05-13T20:45:39.689Z,19.90
2023-05-13T20:48:10.981Z,20.10
2023-05-13T20:50:41.958Z,20.00
2023-05-13T20:53:12.893Z,20.00
2023-05-13T20:55:43.792Z,19.90
2023-05-13T20:58:16.674Z,20.20
2023-05-13T21:00:47.629Z,20.10
2023-05-13T21:03:18.690Z,20.20
2023-05-13T21:05:49.682Z,20.30
2023-05-13T21:08:20.695Z,20.40
2023-05-13T21:10:56.124Z,20.40
2023-05-13T21:13:27.099Z,20.40
2023-05-13T21:15:58.267Z,20.50
2023-05-13T21:18:29.256Z,20.40
2023-05-13T21:21:00.546Z,20.20
2023-05-13T21:23:33.336Z,20.30
2023-05-13T21:26:07.980Z,20.40
2023-05-13T21:28:39.226Z,20.30
2023-05-13T21:31:10.181Z,20.40
2023-05-13T21:33:41.217Z,20.60
2023-05-13T21:36:12.146Z,20.70
2023-05-13T21:38:43.137Z,20.90
2023-05-13T21:41:14.037Z,20.70
2023-05-13T21:43:44.948Z,20.80
2023-05-13T21:46:15.825Z,20.90
2023-05-13T21:48:47.002Z,20.50
2023-05-13T21:51:17.977Z,20.60
2023-05-13T21:53:49.061Z,20.40
2023-05-13T21:56:20.154Z,20.50
2023-05-13T21:58:51.115Z,20.40
2023-05-13T22:01:22.235Z,20.50
2023-05-13T22:03:53.126Z,20.30
2023-05-13T22:06:24.036Z,20.40
2023-05-13T22:08:54.942Z,20.50
2023-05-13T22:11:26.596Z,20.40
2023-05-13T22:14:00.185Z,20.30
2023-05-13T22:16:31.183Z,20.30
2023-05-13T22:19:04.313Z,20.30
2023-05-13T22:21:36.058Z,20.30
2023-05-13T22:24:08.262Z,20.10
2023-05-13T22:26:39.471Z,20.00
2023-05-13T22:29:10.377Z,20.10
2023-05-13T22:31:41.342Z,20.10
2023-05-13T22:34:12.426Z,20.10
2023-05-13T22:36:44.000Z,20.20
2023-05-13T22:39:17.294Z,20.00
2023-05-13T22:41:48.259Z,20.00
2023-05-13T22:44:19.351Z,20.30
2023-05-13T22:46:52.169Z,20.20
2023-05-13T22:49:23.161Z,20.10
2023-05-13T22:51:54.039Z,20.20
2023-05-13T22:54:24.991Z,20.20
2023-05-13T22:56:55.906Z,20.30
2023-05-13T22:59:27.637Z,20.30
2023-05-13T23:01:58.679Z,20.30
2023-05-13T23:04:30.062Z,20.20
2023-05-13T23:07:02.060Z,20.40
2023-05-13T23:09:32.946Z,20.30
2023-05-13T23:12:04.709Z,20.20
2023-05-13T23:14:36.026Z,20.20
2023-05-13T23:17:08.000Z,20.10
2023-05-13T23:19:38.927Z,20.20
2023-05-13T23:22:10.045Z,20.20
2023-05-13T23:24:40.934Z,20.30
2023-05-13T23:27:12.033Z,20.40
2023-05-13T23:29:42.977Z,20.40
2023-05-13T23:32:13.918Z,20.40
2023-05-13T23:34:45.042Z,20.50
2023-05-13T23:37:15.868Z,20.50
2023-05-13T23:39:48.468Z,20.50
2023-05-13T23:42:19.462Z,20.20
2023-05-13T23:44:50.400Z,20.20
2023-05-13T23:47:21.674Z,20.20
2023-05-13T23:49:52.655Z,20.20
2023-05-13T23:52:23.558Z,20.20
2023-05-13T23:54:54.451Z,20.20
2023-05-13T23:57:25.413Z,20.30
2023-05-13T23:59:56.320Z,20.20
